Time;durP1;ratioP1;P1;durP2;ratioP2;P2;SDS_P1;SDS_P2;PMS_P1;PMS_P2;Temp;Humidity;BMP_temperature;BMP_pressure;BME280_temperature;BME280_humidity;BME280_pressure;Samples;Min_cycle;Max_cycle;Signal;HPM_P1;HPM_P2
2023/02/06 00:02:17;;;;;;;4.57;2.37;;;3.60;52.00;;;;;;5033796;28;20044;-71
2023/02/06 00:04:43;;;;;;;5.33;2.43;;;3.50;51.60;;;;;;5033817;28;20059;-71
2023/02/06 00:07:09;;;;;;;3.37;1.90;;;3.50;51.60;;;;;;5033832;28;20045;-71
2023/02/06 00:09:34;;;;;;;4.77;2.10;;;3.50;51.80;;;;;;5033664;28;20029;-71
2023/02/06 00:12:00;;;;;;;5.33;2.03;;;3.50;51.60;;;;;;5034013;28;20037;-71
2023/02/06 00:14:26;;;;;;;4.83;2.60;;;3.50;51.60;;;;;;5033320;28;20079;-71
2023/02/06 00:16:52;;;;;;;5.13;2.27;;;3.50;52.00;;;;;;5033750;28;20034;-71
2023/02/06 00:19:17;;;;;;;6.10;2.23;;;3.50;51.90;;;;;;5033869;28;20507;-71
2023/02/06 00:21:43;;;;;;;4.33;2.00;;;3.50;52.00;;;;;;5033491;28;20381;-71
2023/02/06 00:24:09;;;;;;;4.60;2.13;;;3.50;52.10;;;;;;5032147;28;20029;-71
2023/02/06 00:26:34;;;;;;;3.93;2.10;;;3.40;52.10;;;;;;5030529;28;20042;-71
2023/02/06 00:29:00;;;;;;;3.50;2.03;;;3.40;52.10;;;;;;5031180;28;20037;-71
2023/02/06 00:31:26;;;;;;;4.63;2.07;;;3.40;52.00;;;;;;5033250;28;20041;-71
2023/02/06 00:33:52;;;;;;;4.20;2.10;;;3.40;52.10;;;;;;5033502;28;20112;-71
2023/02/06 00:36:17;;;;;;;5.47;2.27;;;3.40;52.20;;;;;;5033342;28;20049;-71
2023/02/06 00:38:43;;;;;;;3.93;2.00;;;3.40;52.00;;;;;;5033267;28;20033;-71
2023/02/06 00:41:09;;;;;;;4.13;2.00;;;3.40;52.00;;;;;;5033376;28;20034;-71
2023/02/06 00:43:35;;;;;;;5.20;2.17;;;3.40;52.10;;;;;;5032948;28;20046;-71
2023/02/06 00:46:01;;;;;;;4.00;2.10;;;3.40;52.20;;;;;;5033125;28;20030;-71
2023/02/06 00:48:27;;;;;;;4.07;2.00;;;3.40;52.20;;;;;;5032893;28;20056;-71
2023/02/06 00:50:53;;;;;;;5.63;2.37;;;3.30;52.40;;;;;;5033154;28;20099;-71
2023/02/06 00:53:18;;;;;;;6.03;2.27;;;3.40;52.40;;;;;;5033319;28;20121;-71
2023/02/06 00:55:44;;;;;;;3.90;2.17;;;3.40;52.40;;;;;;5031475;28;20041;-71
2023/02/06 00:58:10;;;;;;;6.23;2.13;;;3.40;52.20;;;;;;5033067;28;20117;-71
2023/02/06 01:00:36;;;;;;;6.50;2.23;;;3.40;52.60;;;;;;5031375;28;20037;-71
2023/02/06 01:03:01;;;;;;;4.80;2.30;;;3.40;52.50;;;;;;5032521;28;20030;-71
2023/02/06 01:05:27;;;;;;;3.33;1.70;;;3.30;52.60;;;;;;5032489;28;20083;-71
2023/02/06 01:07:53;;;;;;;5.17;2.27;;;3.30;52.60;;;;;;5031551;28;20042;-70
2023/02/06 01:10:19;;;;;;;5.47;2.33;;;3.30;52.70;;;;;;5032819;28;20396;-71
2023/02/06 01:12:45;;;;;;;3.27;2.00;;;3.30;52.80;;;;;;5032899;28;20040;-70
2023/02/06 01:15:12;;;;;;;3.70;2.10;;;3.30;52.80;;;;;;5032412;28;20054;-71
2023/02/06 01:17:39;;;;;;;5.73;1.87;;;3.30;52.50;;;;;;5032665;28;20040;-71
2023/02/06 01:20:08;;;;;;;5.80;2.50;;;3.30;53.00;;;;;;5031972;28;20041;-71
2023/02/06 01:22:35;;;;;;;6.43;2.30;;;3.30;53.20;;;;;;5032328;28;20029;-71
2023/02/06 01:25:03;;;;;;;7.33;2.30;;;3.30;52.90;;;;;;5032541;28;20036;-71
2023/02/06 01:27:29;;;;;;;4.30;1.93;;;3.30;53.20;;;;;;5032426;28;20026;-71
2023/02/06 01:29:55;;;;;;;6.20;2.40;;;3.30;53.20;;;;;;5032599;28;20126;-71
2023/02/06 01:32:20;;;;;;;4.27;2.30;;;3.30;53.30;;;;;;5032503;28;20092;-71
2023/02/06 01:34:46;;;;;;;5.83;2.47;;;3.30;53.30;;;;;;5032497;28;20048;-71
2023/02/06 01:37:12;;;;;;;5.83;2.30;;;3.30;53.30;;;;;;5032243;28;20029;-71
2023/02/06 01:39:37;;;;;;;5.00;2.30;;;3.30;52.80;;;;;;5032450;28;20109;-71
2023/02/06 01:42:04;;;;;;;6.50;2.10;;;3.30;52.60;;;;;;5032458;28;20057;-71
2023/02/06 01:44:31;;;;;;;3.77;1.80;;;3.30;52.90;;;;;;5032390;28;20057;-71
2023/02/06 01:46:58;;;;;;;4.57;2.03;;;3.30;52.50;;;;;;5032298;28;20103;-71
2023/02/06 01:49:26;;;;;;;5.70;2.53;;;3.20;52.70;;;;;;5032376;28;20037;-70
2023/02/06 01:51:59;;;;;;;6.43;1.83;;;3.20;52.50;;;;;;5032185;28;20064;-70
2023/02/06 01:54:25;;;;;;;4.90;2.00;;;3.20;52.80;;;;;;5032291;28;20030;-70
2023/02/06 01:56:55;;;;;;;4.03;2.10;;;3.20;52.80;;;;;;5032329;28;20038;-71
2023/02/06 01:59:21;;;;;;;4.40;2.10;;;3.20;53.10;;;;;;5029652;28;20594;-71
2023/02/06 02:01:47;;;;;;;3.83;1.90;;;3.10;52.80;;;;;;5029511;28;20040;-71
2023/02/06 02:04:20;;;;;;;4.00;2.27;;;3.10;52.70;;;;;;5030201;28;20029;-71
2023/02/06 02:07:19;;;;;;;4.85;2.05;;;3.10;53.20;;;;;;5031726;28;20041;-71
2023/02/06 02:09:45;;;;;;;3.43;2.23;;;3.10;53.10;;;;;;5031714;28;20041;-71
2023/02/06 02:12:12;;;;;;;4.27;2.10;;;3.10;52.90;;;;;;5031800;28;20033;-71
2023/02/06 02:14:40;;;;;;;13.57;3.60;;;3.00;52.90;;;;;;5031672;28;20602;-71
2023/02/06 02:17:40;;;;;;;5.37;2.30;;;3.00;53.00;;;;;;5032123;28;20036;-71
2023/02/06 02:20:53;;;;;;;4.33;2.30;;;3.00;52.80;;;;;;5031894;28;20072;-70
2023/02/06 02:23:40;;;;;;;4.07;2.37;;;3.00;53.10;;;;;;4971745;28;20033;-71
2023/02/06 02:26:27;;;;;;;3.97;2.20;;;3.00;52.50;;;;;;5031742;28;20065;-71
2023/02/06 02:29:15;;;;;;;5.10;2.10;;;2.90;52.60;;;;;;5031665;28;20061;-70
2023/02/06 02:32:02;;;;;;;6.23;2.30;;;3.00;52.90;;;;;;5032153;28;20040;-71
2023/02/06 02:34:58;;;;;;;5.83;2.47;;;2.90;53.00;;;;;;5035462;28;20025;-71
2023/02/06 02:37:53;;;;;;;4.67;2.43;;;2.90;52.80;;;;;;5035236;28;20377;-70
2023/02/06 02:40:26;;;;;;;5.73;2.50;;;2.80;52.80;;;;;;5000514;28;20029;-71
2023/02/06 02:43:11;;;;;;;9.43;2.30;;;2.80;53.10;;;;;;5035469;28;20079;-71
2023/02/06 02:45:49;;;;;;;5.70;2.40;;;2.80;53.20;;;;;;5035260;28;20033;-70
2023/02/06 02:48:22;;;;;;;5.97;1.97;;;2.80;52.90;;;;;;5035317;28;20033;-71
2023/02/06 02:50:48;;;;;;;3.23;2.20;;;2.80;53.00;;;;;;5035733;28;20475;-71
2023/02/06 02:53:14;;;;;;;5.17;2.57;;;2.80;52.90;;;;;;5034864;28;20076;-71
2023/02/06 02:55:41;;;;;;;5.77;2.60;;;2.70;53.30;;;;;;5035173;28;20053;-71
2023/02/06 02:58:10;;;;;;;7.33;2.80;;;2.70;53.40;;;;;;5035055;28;20032;-71
2023/02/06 03:00:42;;;;;;;3.53;2.13;;;2.70;53.30;;;;;;5035592;28;20029;-71
2023/02/06 03:03:12;;;;;;;3.40;2.10;;;2.70;53.40;;;;;;5035162;28;20531;-71
2023/02/06 03:06:01;;;;;;;5.17;2.50;;;2.70;53.30;;;;;;5035080;28;20048;-71
2023/02/06 03:08:38;;;;;;;4.07;2.37;;;2.60;52.90;;;;;;5035168;28;20517;-71
2023/02/06 03:11:16;;;;;;;3.97;2.30;;;2.60;53.10;;;;;;5034925;28;20044;-71
2023/02/06 03:13:50;;;;;;;5.33;2.67;;;2.50;53.00;;;;;;5035002;28;20034;-71
2023/02/06 03:16:24;;;;;;;3.43;2.23;;;2.50;53.60;;;;;;5035058;28;20507;-71
2023/02/06 03:18:54;;;;;;;4.90;2.77;;;2.50;53.70;;;;;;5034810;28;20104;-71
2023/02/06 03:21:21;;;;;;;6.83;2.57;;;2.50;53.70;;;;;;5034838;28;20038;-71
2023/02/06 03:23:50;;;;;;;7.17;3.27;;;2.40;53.60;;;;;;5034760;28;20029;-71
2023/02/06 03:26:21;;;;;;;3.57;2.33;;;2.40;53.80;;;;;;5034477;28;20042;-71
2023/02/06 03:28:54;;;;;;;6.07;3.40;;;2.40;53.90;;;;;;5034573;28;20034;-71
2023/02/06 03:31:27;;;;;;;5.27;2.97;;;2.30;54.40;;;;;;5034725;28;20045;-71
2023/02/06 03:34:08;;;;;;;;;;;2.30;54.40;;;;;;5035267;28;20033;-70
2023/02/06 03:36:35;;;;;;;5.63;2.57;;;2.30;54.20;;;;;;5034471;28;20008;-71
2023/02/06 03:39:01;;;;;;;8.57;3.07;;;2.30;54.30;;;;;;5034410;28;20037;-70
2023/02/06 03:41:32;;;;;;;5.77;2.67;;;2.30;54.70;;;;;;5034518;28;20038;-71
2023/02/06 03:43:59;;;;;;;5.80;3.13;;;2.30;55.20;;;;;;5033875;28;20037;-71
2023/02/06 03:46:27;;;;;;;4.97;2.60;;;2.30;54.60;;;;;;5034192;28;20033;-71
2023/02/06 03:48:58;;;;;;;5.60;2.70;;;2.30;54.40;;;;;;5034034;28;20033;-70
2023/02/06 03:51:35;;;;;;;7.00;3.73;;;2.30;54.40;;;;;;5034176;28;20385;-71
2023/02/06 03:54:04;;;;;;;6.90;2.83;;;2.30;54.50;;;;;;5034093;28;20056;-71
2023/02/06 03:56:33;;;;;;;6.10;2.60;;;2.30;54.60;;;;;;5034017;28;20132;-71
2023/02/06 03:58:58;;;;;;;5.43;2.57;;;2.20;54.50;;;;;;5034271;28;20053;-71
2023/02/06 04:01:24;;;;;;;5.83;2.83;;;2.20;54.50;;;;;;5034004;28;20068;-71
2023/02/06 04:03:50;;;;;;;6.37;3.00;;;2.20;54.40;;;;;;5034095;28;20034;-71
2023/02/06 04:06:16;;;;;;;5.90;3.10;;;2.20;54.40;;;;;;5033623;28;20400;-70
2023/02/06 04:08:42;;;;;;;9.00;2.77;;;2.20;54.30;;;;;;5033847;28;20032;-71
2023/02/06 04:11:08;;;;;;;6.07;2.73;;;2.10;54.50;;;;;;5033993;28;20033;-71
2023/02/06 04:13:34;;;;;;;9.83;3.20;;;2.20;54.60;;;;;;5033865;28;20029;-71
2023/02/06 04:16:00;;;;;;;5.53;2.63;;;2.10;54.40;;;;;;5033337;28;20045;-71
2023/02/06 04:18:26;;;;;;;7.03;3.13;;;2.10;54.60;;;;;;5033364;28;20033;-70
2023/02/06 04:20:52;;;;;;;8.67;3.27;;;2.10;54.60;;;;;;5033890;28;20040;-69
2023/02/06 04:23:18;;;;;;;4.93;2.80;;;2.00;54.80;;;;;;5033869;28;20029;-71
2023/02/06 04:25:45;;;;;;;5.50;2.83;;;2.00;54.90;;;;;;5033922;28;20124;-71
2023/02/06 04:28:11;;;;;;;6.10;3.00;;;2.00;55.20;;;;;;5033705;28;20096;-71
2023/02/06 04:30:37;;;;;;;5.60;2.63;;;2.00;55.10;;;;;;5033363;28;20515;-70
2023/02/06 04:33:03;;;;;;;8.53;3.37;;;2.00;55.30;;;;;;5033432;28;20032;-70
2023/02/06 04:35:29;;;;;;;6.37;2.83;;;1.90;55.50;;;;;;5033506;28;20041;-70
2023/02/06 04:37:55;;;;;;;6.33;2.90;;;1.80;55.40;;;;;;5033486;28;20029;-70
2023/02/06 04:40:21;;;;;;;6.60;3.00;;;1.80;55.70;;;;;;5033110;28;20041;-71
2023/02/06 04:42:46;;;;;;;8.73;3.00;;;1.80;55.80;;;;;;5033068;28;20091;-71
2023/02/06 04:45:12;;;;;;;8.57;3.03;;;1.80;55.90;;;;;;5033074;28;20037;-71
2023/02/06 04:47:39;;;;;;;8.60;3.70;;;1.80;55.70;;;;;;5033100;28;20532;-71
2023/02/06 04:50:05;;;;;;;8.20;3.20;;;1.80;55.80;;;;;;5033412;28;20044;-71
2023/02/06 04:52:32;;;;;;;5.37;3.20;;;1.80;55.80;;;;;;5033289;28;20029;-71
2023/02/06 04:54:57;;;;;;;7.03;3.60;;;1.70;55.90;;;;;;5032408;28;20042;-71
2023/02/06 04:57:24;;;;;;;7.60;3.60;;;1.70;56.00;;;;;;5032850;28;20095;-71
2023/02/06 04:59:50;;;;;;;7.50;3.43;;;1.70;56.00;;;;;;5032970;28;20072;-71
2023/02/06 05:02:15;;;;;;;5.97;3.47;;;1.70;56.00;;;;;;5033101;28;20496;-71
2023/02/06 05:04:41;;;;;;;5.20;2.80;;;1.70;56.20;;;;;;5033041;28;20116;-71
2023/02/06 05:07:07;;;;;;;9.10;3.27;;;1.70;56.50;;;;;;5032766;28;20064;-70
2023/02/06 05:09:33;;;;;;;7.30;3.87;;;1.60;56.20;;;;;;5032899;28;20067;-70
2023/02/06 05:11:58;;;;;;;6.83;2.90;;;1.70;56.50;;;;;;5032842;28;20068;-70
2023/02/06 05:14:24;;;;;;;6.07;2.83;;;1.70;56.40;;;;;;5032707;28;20033;-70
2023/02/06 05:16:51;;;;;;;7.23;3.70;;;1.70;56.50;;;;;;5032780;28;20120;-71
2023/02/06 05:19:16;;;;;;;6.87;3.87;;;1.70;56.70;;;;;;5032585;28;20484;-70
2023/02/06 05:21:42;;;;;;;7.60;3.43;;;1.60;56.50;;;;;;5032769;28;20037;-70
2023/02/06 05:24:08;;;;;;;7.47;3.70;;;1.60;56.60;;;;;;5032689;28;20112;-70
2023/02/06 05:26:33;;;;;;;5.47;2.97;;;1.60;56.50;;;;;;5032554;28;20248;-69
2023/02/06 05:28:59;;;;;;;9.13;3.23;;;1.60;56.70;;;;;;5032367;28;20064;-70
2023/02/06 05:31:25;;;;;;;5.87;3.47;;;1.60;56.80;;;;;;5032451;28;20563;-71
2023/02/06 05:33:51;;;;;;;13.00;4.53;;;1.60;56.70;;;;;;5032765;28;20087;-71
2023/02/06 05:36:16;;;;;;;7.10;3.70;;;1.50;56.60;;;;;;5032751;28;20088;-71
2023/02/06 05:38:42;;;;;;;7.53;3.83;;;1.50;56.50;;;;;;5032522;28;20076;-71
2023/02/06 05:41:08;;;;;;;9.27;4.10;;;1.50;56.80;;;;;;5032289;28;20183;-70
2023/02/06 05:43:34;;;;;;;20.80;3.93;;;1.50;56.90;;;;;;5032469;28;20034;-72
2023/02/06 05:46:00;;;;;;;15.20;4.10;;;1.50;56.80;;;;;;5032335;28;20037;-71
2023/02/06 05:48:29;;;;;;;12.23;4.70;;;1.50;56.90;;;;;;5032398;28;20030;-70
2023/02/06 05:50:56;;;;;;;9.27;3.80;;;1.50;56.70;;;;;;5032266;28;20033;-70
2023/02/06 05:53:22;;;;;;;6.60;3.53;;;1.50;56.90;;;;;;5032305;28;20118;-70
2023/02/06 05:55:48;;;;;;;8.30;4.00;;;1.50;57.00;;;;;;5032353;28;20044;-70
2023/02/06 05:58:14;;;;;;;7.93;3.73;;;1.50;56.90;;;;;;5032437;28;20025;-70
2023/02/06 06:00:40;;;;;;;6.93;4.00;;;1.50;56.90;;;;;;5032423;28;20041;-71
2023/02/06 06:03:06;;;;;;;8.50;4.30;;;1.40;56.80;;;;;;5032421;28;20052;-71
2023/02/06 06:05:32;;;;;;;6.33;3.87;;;1.40;56.60;;;;;;5031938;28;20033;-71
2023/02/06 06:07:58;;;;;;;8.83;3.97;;;1.40;57.00;;;;;;5035857;28;20037;-70
2023/02/06 06:10:23;;;;;;;6.63;3.80;;;1.40;57.10;;;;;;5036322;28;20183;-71
2023/02/06 06:12:49;;;;;;;8.13;4.40;;;1.30;57.30;;;;;;5036171;28;20057;-70
2023/02/06 06:15:15;;;;;;;8.63;4.17;;;1.30;57.40;;;;;;5036032;28;20567;-70
2023/02/06 06:17:41;;;;;;;7.37;3.87;;;1.30;57.70;;;;;;5036027;28;20038;-70
2023/02/06 06:20:07;;;;;;;6.53;3.60;;;1.30;57.70;;;;;;5035755;28;20076;-70
2023/02/06 06:22:33;;;;;;;8.13;4.07;;;1.30;57.50;;;;;;5035641;28;20514;-71
2023/02/06 06:24:58;;;;;;;9.27;3.63;;;1.30;57.60;;;;;;5035428;28;20034;-70
2023/02/06 06:27:24;;;;;;;8.47;3.93;;;1.30;57.50;;;;;;5035614;28;20069;-70
2023/02/06 06:29:50;;;;;;;9.00;4.37;;;1.20;57.60;;;;;;5035517;28;20038;-70
2023/02/06 06:32:16;;;;;;;15.47;4.30;;;1.20;57.70;;;;;;5035821;28;20060;-70
2023/02/06 06:34:41;;;;;;;5.90;4.37;;;1.20;57.90;;;;;;5035583;28;20042;-71
2023/02/06 06:37:07;;;;;;;10.60;4.60;;;1.20;58.00;;;;;;5035671;28;20490;-71
2023/02/06 06:39:33;;;;;;;10.13;4.20;;;1.20;58.00;;;;;;5035522;28;20025;-70
2023/02/06 06:41:58;;;;;;;8.43;4.07;;;1.20;57.90;;;;;;5034301;28;20041;-70
2023/02/06 06:44:24;;;;;;;8.77;4.50;;;1.20;57.80;;;;;;5035437;28;20030;-70
2023/02/06 06:46:50;;;;;;;8.73;4.33;;;1.20;57.80;;;;;;5035284;28;20040;-70
2023/02/06 06:49:15;;;;;;;13.17;4.70;;;1.20;58.00;;;;;;5035124;28;20419;-70
2023/02/06 06:51:41;;;;;;;10.27;4.70;;;1.20;58.10;;;;;;5035479;28;20091;-70
2023/02/06 06:54:07;;;;;;;9.17;4.73;;;1.20;58.00;;;;;;5035844;28;20052;-70
2023/02/06 06:56:33;;;;;;;18.07;5.97;;;1.20;58.00;;;;;;5035399;28;20045;-70
2023/02/06 06:58:58;;;;;;;7.60;4.77;;;1.20;57.80;;;;;;5035309;28;20040;-71
2023/02/06 07:01:24;;;;;;;7.80;4.30;;;1.20;57.80;;;;;;5035145;28;20030;-70
2023/02/06 07:03:50;;;;;;;7.00;4.20;;;1.20;57.90;;;;;;5035515;28;20033;-70
2023/02/06 07:06:15;;;;;;;12.80;4.27;;;1.20;58.10;;;;;;5034967;28;20056;-70
2023/02/06 07:08:42;;;;;;;9.37;4.80;;;1.10;58.30;;;;;;5035027;28;20034;-70
2023/02/06 07:11:15;;;;;;;12.13;5.30;;;1.20;58.40;;;;;;5034515;28;20037;-70
2023/02/06 07:13:42;;;;;;;15.40;4.57;;;1.20;58.50;;;;;;5034846;28;20572;-70
2023/02/06 07:16:08;;;;;;;8.83;4.80;;;1.20;58.40;;;;;;5034547;28;20045;-70
2023/02/06 07:18:34;;;;;;;7.73;4.47;;;1.30;58.10;;;;;;5034121;28;20034;-71
2023/02/06 07:21:00;;;;;;;9.03;4.47;;;1.30;58.00;;;;;;5034743;28;20034;-70
2023/02/06 07:23:26;;;;;;;9.67;4.57;;;1.30;58.10;;;;;;5034320;28;20136;-71
2023/02/06 07:25:51;;;;;;;9.37;4.53;;;1.30;58.20;;;;;;5034533;28;20288;-70
2023/02/06 07:28:17;;;;;;;9.83;5.27;;;1.30;58.10;;;;;;5034388;28;20034;-70
2023/02/06 07:30:43;;;;;;;8.83;4.63;;;1.40;58.10;;;;;;5034617;28;20029;-70
2023/02/06 07:33:09;;;;;;;10.53;4.70;;;1.40;58.20;;;;;;5034359;28;20033;-71
2023/02/06 07:35:34;;;;;;;15.63;5.27;;;1.40;58.20;;;;;;5032504;28;20049;-70
2023/02/06 07:38:00;;;;;;;7.63;4.63;;;1.40;58.20;;;;;;5033930;28;20037;-70
2023/02/06 07:40:26;;;;;;;9.13;5.07;;;1.40;58.10;;;;;;5033972;28;20060;-70
2023/02/06 07:42:52;;;;;;;10.77;5.20;;;1.40;58.00;;;;;;5034108;28;20041;-70
2023/02/06 07:45:17;;;;;;;13.70;5.30;;;1.40;58.90;;;;;;5036533;28;20123;-70
2023/02/06 07:47:44;;;;;;;18.13;5.83;;;1.40;58.30;;;;;;5051272;28;20021;-70
2023/02/06 07:50:10;;;;;;;16.03;7.80;;;1.50;58.30;;;;;;5053393;28;20092;-70
2023/02/06 07:52:36;;;;;;;13.70;7.57;;;1.50;58.40;;;;;;5053294;28;20482;-70
2023/02/06 07:55:02;;;;;;;12.00;6.20;;;1.50;58.40;;;;;;5053301;28;20051;-70
2023/02/06 07:57:28;;;;;;;9.27;5.20;;;1.50;58.30;;;;;;5053261;28;20037;-71
2023/02/06 08:00:00;;;;;;;9.07;5.80;;;1.40;58.20;;;;;;5053419;28;20039;-71
2023/02/06 08:02:25;;;;;;;17.03;6.60;;;1.40;58.20;;;;;;5053575;28;20044;-70
2023/02/06 08:04:51;;;;;;;15.50;6.57;;;1.40;58.50;;;;;;5053440;28;20037;-71
2023/02/06 08:07:17;;;;;;;13.60;5.73;;;1.50;58.50;;;;;;5053631;28;20044;-70
2023/02/06 08:09:43;;;;;;;11.43;5.50;;;1.50;58.40;;;;;;5053732;28;20041;-70
2023/02/06 08:12:09;;;;;;;13.97;6.13;;;1.60;58.50;;;;;;5053668;28;20051;-70
2023/02/06 08:14:34;;;;;;;16.60;6.13;;;1.60;58.50;;;;;;5053256;28;20365;-70
2023/02/06 08:17:00;;;;;;;12.60;6.13;;;1.70;58.40;;;;;;5053535;28;20453;-72
2023/02/06 08:19:26;;;;;;;21.80;7.70;;;1.70;58.20;;;;;;5053472;28;20033;-70
2023/02/06 08:21:57;;;;;;;13.50;5.17;;;1.70;58.10;;;;;;5035020;28;20072;-70
2023/02/06 08:24:23;;;;;;;12.30;5.57;;;1.80;58.00;;;;;;5052605;28;20028;-70
2023/02/06 08:26:49;;;;;;;11.50;6.03;;;1.90;58.00;;;;;;5045593;28;20022;-72
2023/02/06 08:29:15;;;;;;;8.63;4.53;;;2.00;57.90;;;;;;5032949;28;20037;-70
2023/02/06 08:31:42;;;;;;;12.23;5.13;;;2.00;57.50;;;;;;5032816;28;20400;-70
2023/02/06 08:34:11;;;;;;;13.43;5.90;;;2.10;57.30;;;;;;5032775;28;20048;-70
2023/02/06 08:36:36;;;;;;;9.63;5.37;;;2.10;57.10;;;;;;5032684;28;20037;-70
2023/02/06 08:39:04;;;;;;;9.33;5.20;;;2.20;57.00;;;;;;5032188;28;20017;-71
2023/02/06 08:41:33;;;;;;;16.20;5.17;;;2.20;56.90;;;;;;5032542;28;20076;-70
2023/02/06 08:44:00;;;;;;;10.00;5.33;;;2.30;57.00;;;;;;5032661;28;20033;-71
2023/02/06 08:46:28;;;;;;;9.70;4.87;;;2.40;56.60;;;;;;5032878;28;20113;-71
2023/02/06 08:49:00;;;;;;;10.47;4.43;;;2.40;56.40;;;;;;5029978;28;20049;-71
2023/02/06 08:51:26;;;;;;;9.02;4.43;;;2.50;56.30;;;;;;5032182;28;20044;-71
2023/02/06 08:53:59;;;;;;;9.53;4.47;;;2.50;55.90;;;;;;5032254;28;20036;-72
2023/02/06 08:56:25;;;;;;;13.50;5.22;;;2.60;55.60;;;;;;5032709;28;20070;-71
2023/02/06 08:58:52;;;;;;;7.30;4.27;;;2.70;55.40;;;;;;5032565;28;20041;-73
2023/02/06 09:01:19;;;;;;;7.20;4.03;;;2.70;55.40;;;;;;5032154;28;20116;-71
2023/02/06 09:03:45;;;;;;;9.60;4.50;;;2.80;54.80;;;;;;5032296;28;20083;-71
2023/02/06 09:06:12;;;;;;;8.07;4.13;;;2.80;54.20;;;;;;5032159;28;20060;-71
2023/02/06 09:08:38;;;;;;;7.27;4.00;;;2.80;54.30;;;;;;5032384;28;20033;-71
2023/02/06 09:11:16;;;;;;;5.53;3.60;;;2.80;54.40;;;;;;5032048;28;20500;-70
2023/02/06 09:13:43;;;;;;;9.03;4.33;;;2.80;54.20;;;;;;5032207;28;20030;-70
2023/02/06 09:16:10;;;;;;;7.37;4.43;;;2.90;54.40;;;;;;5032358;28;20069;-70
2023/02/06 09:18:36;;;;;;;8.97;4.90;;;2.90;54.10;;;;;;5032176;28;20132;-72
2023/02/06 09:21:12;;;;;;;7.97;4.60;;;2.90;54.20;;;;;;5031992;28;20527;-70
2023/02/06 09:23:42;;;;;;;8.47;4.60;;;3.00;54.30;;;;;;5032286;28;20033;-71
2023/02/06 09:26:12;;;;;;;8.63;4.13;;;3.00;54.20;;;;;;5032121;28;20100;-71
2023/02/06 09:28:38;;;;;;;9.50;6.17;;;3.10;54.50;;;;;;5031995;28;20084;-71
2023/02/06 09:31:05;;;;;;;7.13;4.93;;;3.10;54.10;;;;;;5032079;28;20108;-70
2023/02/06 09:33:31;;;;;;;10.67;4.20;;;3.20;53.80;;;;;;5032105;28;20520;-71
2023/02/06 09:36:05;;;;;;;12.60;4.23;;;3.20;53.60;;;;;;5030962;28;20045;-72
2023/02/06 09:38:32;;;;;;;9.27;4.27;;;3.30;53.30;;;;;;5031228;28;20483;-73
2023/02/06 09:41:02;;;;;;;7.13;4.13;;;3.30;53.20;;;;;;5031741;28;20034;-71
2023/02/06 09:43:30;;;;;;;6.90;3.83;;;3.40;53.10;;;;;;5037755;28;20034;-71
2023/02/06 09:46:00;;;;;;;9.80;4.97;;;3.50;53.00;;;;;;5037884;28;20552;-71
2023/02/06 09:48:29;;;;;;;6.93;4.07;;;3.60;52.30;;;;;;5038444;28;20488;-70
2023/02/06 09:51:26;;;;;;;6.73;3.63;;;3.60;52.30;;;;;;5039052;28;20434;-70
2023/02/06 09:54:05;;;;;;;7.23;3.50;;;3.70;51.70;;;;;;5038965;28;20084;-70
2023/02/06 09:56:43;;;;;;;7.20;3.97;;;3.80;51.40;;;;;;5039013;28;20037;-70
2023/02/06 09:59:33;;;;;;;9.80;3.87;;;3.80;51.60;;;;;;5038044;28;20037;-70
2023/02/06 10:02:11;;;;;;;8.17;4.10;;;3.90;52.20;;;;;;5039083;28;20037;-71
2023/02/06 10:04:45;;;;;;;9.20;4.53;;;4.00;52.10;;;;;;5039118;28;20044;-71
2023/02/06 10:07:22;;;;;;;5.73;3.70;;;4.20;51.60;;;;;;5038906;28;20086;-71
2023/02/06 10:10:12;;;;;;;7.80;3.87;;;4.20;51.30;;;;;;5038527;28;20613;-71
2023/02/06 10:12:46;;;;;;;8.27;4.07;;;4.30;50.90;;;;;;5038420;28;20041;-71
2023/02/06 10:15:32;;;;;;;5.47;3.30;;;4.30;50.90;;;;;;5039073;28;20049;-71
2023/02/06 10:18:10;;;;;;;8.23;4.20;;;4.30;50.70;;;;;;5039063;28;20044;-71
2023/02/06 10:20:48;;;;;;;6.67;3.30;;;4.40;50.60;;;;;;5038977;28;20033;-71
2023/02/06 10:23:33;;;;;;;12.77;3.60;;;4.40;50.30;;;;;;5038374;28;20038;-71
2023/02/06 10:25:58;;;;;;;8.10;4.47;;;4.40;50.30;;;;;;5039153;28;20056;-71
2023/02/06 10:28:28;;;;;;;6.63;4.10;;;4.40;50.00;;;;;;5038938;28;20484;-71
2023/02/06 10:30:56;;;;;;;6.50;3.43;;;4.40;49.80;;;;;;5038967;28;20029;-71
2023/02/06 10:33:44;;;;;;;4.73;3.20;;;4.40;49.20;;;;;;5038935;28;20030;-71
2023/02/06 10:36:21;;;;;;;7.10;3.43;;;4.40;49.00;;;;;;5039015;28;20116;-71
2023/02/06 10:39:25;;;;;;;5.77;3.27;;;4.50;49.30;;;;;;5038821;28;20035;-71
2023/02/06 10:42:05;;;;;;;5.77;3.60;;;4.50;48.80;;;;;;5038905;28;20033;-71
2023/02/06 10:45:09;;;;;;;6.47;3.33;;;4.50;48.90;;;;;;5038868;28;20033;-71
2023/02/06 10:47:55;;;;;;;5.88;3.40;;;4.50;48.80;;;;;;4994513;28;20480;-71
2023/02/06 10:50:29;;;;;;;7.47;3.47;;;4.60;48.70;;;;;;5024605;28;20472;-71
2023/02/06 10:53:18;;;;;;;5.93;3.67;;;4.60;48.90;;;;;;5036261;28;20044;-71
2023/02/06 10:55:50;;;;;;;10.57;3.13;;;4.60;49.00;;;;;;5035731;28;20034;-71
2023/02/06 10:58:26;;;;;;;5.43;3.03;;;4.70;48.70;;;;;;5035675;28;20068;-71
2023/02/06 11:00:53;;;;;;;5.57;3.07;;;4.80;48.70;;;;;;5035598;28;20034;-71
2023/02/06 11:03:22;;;;;;;17.40;4.70;;;4.90;49.00;;;;;;5035306;28;20061;-71
2023/02/06 11:05:49;;;;;;;5.53;3.37;;;4.90;49.20;;;;;;5035462;28;20496;-71
2023/02/06 11:08:30;;;;;;;6.07;3.70;;;5.00;49.10;;;;;;5035528;28;20025;-71
2023/02/06 11:10:57;;;;;;;5.27;3.10;;;5.00;49.10;;;;;;5035451;28;20042;-71
2023/02/06 11:13:32;;;;;;;5.47;3.40;;;5.10;49.10;;;;;;5035122;28;20029;-71
2023/02/06 11:16:04;;;;;;;9.03;3.40;;;5.10;49.10;;;;;;5035292;28;20045;-70
2023/02/06 11:18:37;;;;;;;7.70;3.38;;;5.20;49.20;;;;;;5035329;28;20386;-71
2023/02/06 11:21:04;;;;;;;6.13;3.73;;;5.20;49.10;;;;;;5035188;28;20036;-71
2023/02/06 11:23:33;;;;;;;9.30;3.40;;;5.30;48.80;;;;;;5035058;28;20041;-69
2023/02/06 11:26:12;;;;;;;5.40;3.27;;;5.30;48.50;;;;;;5035208;28;20432;-72
2023/02/06 11:29:00;;;;;;;8.43;4.17;;;5.40;48.60;;;;;;5034951;28;20080;-71
2023/02/06 11:31:41;;;;;;;7.63;3.47;;;5.40;48.70;;;;;;5034385;28;20053;-73
2023/02/06 11:34:18;;;;;;;8.50;3.13;;;5.40;48.80;;;;;;5034543;28;20034;-73
2023/02/06 11:36:49;;;;;;;6.33;3.70;;;5.50;48.60;;;;;;5034936;28;20060;-74
2023/02/06 11:39:37;;;;;;;5.70;3.40;;;5.50;48.20;;;;;;5034886;28;20036;-73
2023/02/06 11:42:04;;;;;;;7.80;3.53;;;5.60;48.80;;;;;;5034084;28;20128;-73
2023/02/06 11:44:44;;;;;;;5.33;3.27;;;5.60;47.90;;;;;;5034404;28;20061;-72
2023/02/06 11:47:35;;;;;;;5.30;3.13;;;5.70;47.80;;;;;;5033162;28;20033;-73
2023/02/06 11:50:13;;;;;;;5.93;3.40;;;5.70;47.90;;;;;;5034571;28;20518;-73
2023/02/06 11:52:41;;;;;;;5.67;3.50;;;5.70;47.50;;;;;;5034311;28;20128;-73
2023/02/06 11:55:21;;;;;;;10.60;3.57;;;5.70;46.60;;;;;;5033943;28;20141;-73
2023/02/06 11:58:00;;;;;;;13.23;3.60;;;5.70;47.20;;;;;;5032793;28;20034;-72
2023/02/06 12:00:26;;;;;;;7.13;3.07;;;5.70;46.20;;;;;;5034037;28;20033;-71
2023/02/06 12:02:54;;;;;;;7.80;3.40;;;5.70;46.60;;;;;;5049605;28;20030;-73
2023/02/06 12:05:24;;;;;;;4.47;3.10;;;5.80;46.50;;;;;;5033894;28;20038;-72
2023/02/06 12:07:52;;;;;;;6.73;3.67;;;5.80;46.70;;;;;;5034015;28;20052;-73
2023/02/06 12:10:22;;;;;;;4.97;3.00;;;5.80;46.40;;;;;;5034175;28;20514;-72
2023/02/06 12:13:17;;;;;;;10.63;4.30;;;5.80;46.30;;;;;;5033409;28;20041;-73
2023/02/06 12:15:52;;;;;;;7.07;3.90;;;5.70;45.40;;;;;;5029745;28;20046;-73
2023/02/06 12:18:24;;;;;;;7.27;3.70;;;5.70;45.90;;;;;;5033445;28;20116;-73
2023/02/06 12:20:58;;;;;;;6.33;3.70;;;5.70;46.10;;;;;;5033554;28;20108;-73
2023/02/06 12:23:38;;;;;;;6.93;3.43;;;5.70;45.60;;;;;;5033315;28;20037;-73
2023/02/06 12:26:10;;;;;;;7.33;3.70;;;5.60;46.10;;;;;;5033625;28;20036;-73
2023/02/06 12:28:35;;;;;;;5.60;3.17;;;5.60;45.90;;;;;;5033641;28;20546;-71
2023/02/06 12:31:09;;;;;;;13.17;3.53;;;5.60;46.10;;;;;;5033652;28;20034;-73
2023/02/06 12:34:00;;;;;;;5.03;3.07;;;5.70;45.90;;;;;;5033464;28;20025;-73
2023/02/06 12:36:59;;;;;;;9.17;4.47;;;5.70;45.10;;;;;;5033252;28;20041;-73
2023/02/06 12:39:30;;;;;;;6.13;3.40;;;5.80;45.20;;;;;;5033310;28;20025;-73
2023/02/06 12:42:20;;;;;;;7.07;4.13;;;5.90;45.60;;;;;;5033296;28;20042;-73
2023/02/06 12:44:53;;;;;;;6.13;3.37;;;6.00;44.40;;;;;;5032987;28;20025;-73
2023/02/06 12:47:24;;;;;;;;;;;6.00;44.40;;;;;;5033575;28;20037;-71
2023/02/06 12:50:02;;;;;;;6.83;3.07;;;6.00;43.30;;;;;;5033267;28;19951;-72
2023/02/06 12:52:43;;;;;;;5.33;3.23;;;6.00;43.00;;;;;;5033010;28;20676;-72
2023/02/06 12:55:30;;;;;;;8.80;3.33;;;6.00;42.00;;;;;;5032886;28;20056;-72
2023/02/06 12:57:57;;;;;;;9.93;3.97;;;6.00;41.70;;;;;;5033104;28;20555;-72
2023/02/06 13:00:49;;;;;;;6.67;3.47;;;5.90;41.60;;;;;;5033013;28;20049;-72
2023/02/06 13:03:33;;;;;;;17.17;3.70;;;5.80;41.40;;;;;;5033151;28;20087;-72
2023/02/06 13:06:09;;;;;;;6.80;3.70;;;5.80;41.20;;;;;;5031277;28;21097;-72
2023/02/06 13:08:46;;;;;;;8.80;3.93;;;5.70;41.70;;;;;;5032783;28;20033;-72
2023/02/06 13:11:34;;;;;;;6.77;3.77;;;5.60;42.10;;;;;;5032895;28;20037;-72
2023/02/06 13:14:22;;;;;;;8.73;3.23;;;5.60;41.90;;;;;;5032597;28;20029;-73